createdAt,value
2018-04-26T00:01:24.095Z,90.44
2018-04-26T00:03:50.481Z,90.91
2018-04-26T00:06:16.903Z,89.60
2018-04-26T00:08:43.338Z,89.73
2018-04-26T00:11:09.761Z,90.11
2018-04-26T00:13:36.180Z,89.74
2018-04-26T00:16:02.558Z,89.73
2018-04-26T00:18:28.935Z,89.95
2018-04-26T00:20:55.254Z,90.56
2018-04-26T00:23:21.624Z,89.66
2018-04-26T00:25:48.187Z,90.23
2018-04-26T00:28:14.510Z,89.67
2018-04-26T00:30:40.890Z,90.40
2018-04-26T00:33:07.272Z,89.38
2018-04-26T00:35:33.734Z,90.66
2018-04-26T00:38:00.163Z,90.60
2018-04-26T00:40:26.612Z,90.88
2018-04-26T00:42:53.002Z,91.53
2018-04-26T00:45:19.431Z,91.46
2018-04-26T00:47:45.783Z,91.87
2018-04-26T00:50:12.213Z,91.44
2018-04-26T00:52:38.617Z,91.21
2018-04-26T00:55:05.083Z,91.53
2018-04-26T00:57:31.452Z,91.46
2018-04-26T00:59:57.836Z,90.71
2018-04-26T01:02:24.187Z,91.57
2018-04-26T01:04:50.708Z,92.33
2018-04-26T01:07:17.025Z,92.61
2018-04-26T01:09:43.420Z,91.62
2018-04-26T01:12:09.736Z,92.18
2018-04-26T01:14:36.102Z,92.19
2018-04-26T01:17:02.529Z,93.03
2018-04-26T01:19:28.817Z,92.09
2018-04-26T01:21:55.210Z,91.43
2018-04-26T01:24:21.723Z,92.21
2018-04-26T01:26:48.120Z,91.53
2018-04-26T01:29:14.457Z,92.68
2018-04-26T01:31:40.851Z,92.29
2018-04-26T01:34:07.322Z,92.71
2018-04-26T01:36:45.746Z,93.36
2018-04-26T01:39:12.160Z,92.62
2018-04-26T01:41:38.469Z,92.48
2018-04-26T01:44:06.006Z,93.02
2018-04-26T01:46:32.310Z,92.09
2018-04-26T01:48:58.701Z,92.62
2018-04-26T01:51:25.083Z,93.40
2018-04-26T01:53:51.445Z,91.78
2018-04-26T01:56:17.878Z,92.74
2018-04-26T01:58:44.237Z,93.96
2018-04-26T02:01:10.564Z,92.45
2018-04-26T02:03:36.873Z,92.97
2018-04-26T02:06:03.392Z,93.43
2018-04-26T02:08:29.756Z,93.57
2018-04-26T02:10:56.112Z,93.71
2018-04-26T02:13:22.480Z,93.36
2018-04-26T02:15:49.916Z,93.07
2018-04-26T02:18:16.242Z,93.35
2018-04-26T02:20:42.612Z,93.83
2018-04-26T02:23:09.038Z,94.32
2018-04-26T02:25:35.555Z,93.71
2018-04-26T02:28:02.040Z,92.88
2018-04-26T02:30:28.392Z,92.79
2018-04-26T02:32:54.804Z,94.02
2018-04-26T02:35:21.267Z,93.63
2018-04-26T02:37:47.608Z,93.15
2018-04-26T02:40:14.021Z,92.80
2018-04-26T02:42:40.460Z,93.52
2018-04-26T02:45:06.959Z,92.75
2018-04-26T02:47:33.311Z,92.83
2018-04-26T02:49:59.817Z,93.92
2018-04-26T02:52:26.233Z,93.04
2018-04-26T02:54:52.625Z,94.38
2018-04-26T02:57:19.036Z,93.95
2018-04-26T02:59:45.351Z,93.37
2018-04-26T03:02:11.700Z,94.11
2018-04-26T03:04:38.217Z,93.98
2018-04-26T03:07:04.578Z,94.14
2018-04-26T03:09:30.924Z,93.77
2018-04-26T03:11:57.390Z,94.03
2018-04-26T03:14:23.874Z,94.73
2018-04-26T03:16:50.203Z,94.74
2018-04-26T03:19:16.571Z,94.20
2018-04-26T03:21:42.883Z,94.51
2018-04-26T03:24:09.328Z,94.36
2018-04-26T03:26:35.673Z,94.78
2018-04-26T03:29:02.061Z,94.71
2018-04-26T03:31:28.417Z,94.17
2018-04-26T03:33:54.764Z,94.91
2018-04-26T03:36:21.187Z,94.76
2018-04-26T03:38:47.555Z,95.00
2018-04-26T03:41:13.948Z,93.94
2018-04-26T03:43:40.398Z,93.66
2018-04-26T03:46:06.902Z,93.92
2018-04-26T03:48:33.415Z,93.38
2018-04-26T03:50:59.854Z,92.81
2018-04-26T03:53:26.275Z,92.66
2018-04-26T03:55:52.836Z,92.15
2018-04-26T03:58:19.285Z,90.97
2018-04-26T04:00:57.948Z,87.80
2018-04-26T04:03:36.692Z,83.21
2018-04-26T04:06:12.247Z,79.53
2018-04-26T04:08:38.711Z,76.96
2018-04-26T04:11:05.209Z,74.43
2018-04-26T04:13:31.655Z,74.83
2018-04-26T04:15:58.196Z,75.45
2018-04-26T04:18:24.576Z,73.92
2018-04-26T04:20:51.312Z,71.33
2018-04-26T04:23:18.355Z,68.40
2018-04-26T04:25:44.815Z,70.07
2018-04-26T04:28:11.153Z,69.42
2018-04-26T04:30:37.505Z,69.63
2018-04-26T04:33:03.906Z,68.78
2018-04-26T04:35:30.329Z,65.84
2018-04-26T04:37:56.826Z,65.12
2018-04-26T04:40:23.152Z,64.93
2018-04-26T04:42:49.500Z,66.87
2018-04-26T04:45:17.118Z,68.28
2018-04-26T04:47:43.498Z,67.55
2018-04-26T04:50:09.866Z,68.41
2018-04-26T04:52:36.541Z,69.69
2018-04-26T04:55:03.056Z,67.76
2018-04-26T04:57:29.490Z,67.42
2018-04-26T04:59:56.064Z,66.99
2018-04-26T05:02:22.535Z,70.86
2018-04-26T05:04:48.942Z,68.46
2018-04-26T05:07:15.484Z,71.03
2018-04-26T05:09:41.906Z,69.89
2018-04-26T05:12:08.347Z,68.78
2018-04-26T05:14:34.828Z,68.56
2018-04-26T05:17:01.251Z,66.52
2018-04-26T05:19:27.624Z,68.50
2018-04-26T05:21:54.051Z,70.18
2018-04-26T05:24:20.607Z,67.16
2018-04-26T05:26:48.083Z,66.46
2018-04-26T05:29:14.631Z,66.92
2018-04-26T05:31:41.109Z,68.21
2018-04-26T05:34:07.453Z,66.60
2018-04-26T05:36:33.978Z,68.07
2018-04-26T05:39:00.417Z,68.07
2018-04-26T05:41:26.815Z,68.18
2018-04-26T05:43:53.345Z,68.03
2018-04-26T05:46:19.805Z,64.06
2018-04-26T05:48:46.260Z,65.68
2018-04-26T05:51:12.975Z,68.05
2018-04-26T05:53:39.510Z,69.17
2018-04-26T05:56:06.684Z,68.32
2018-04-26T05:58:33.165Z,67.27
2018-04-26T06:00:59.718Z,67.34
2018-04-26T06:03:26.272Z,69.54
2018-04-26T06:05:52.838Z,69.34
2018-04-26T06:08:19.231Z,69.91
2018-04-26T06:10:45.658Z,70.68
2018-04-26T06:13:12.176Z,70.89
2018-04-26T06:15:38.559Z,70.10
2018-04-26T06:18:04.936Z,71.95
2018-04-26T06:20:31.365Z,72.52
2018-04-26T06:22:57.755Z,68.71
2018-04-26T06:25:24.257Z,70.98
2018-04-26T06:27:50.702Z,69.84
2018-04-26T06:30:17.412Z,69.92
2018-04-26T06:32:43.875Z,69.93
2018-04-26T06:35:11.937Z,69.34
2018-04-26T06:37:38.395Z,70.24
2018-04-26T06:40:04.882Z,68.66
2018-04-26T06:42:31.354Z,70.12
2018-04-26T06:44:57.906Z,67.89
2018-04-26T06:47:24.413Z,65.78
2018-04-26T06:49:50.827Z,68.16
2018-04-26T06:52:17.305Z,69.86
2018-04-26T06:54:43.783Z,66.06
2018-04-26T06:57:10.286Z,64.81
2018-04-26T06:59:36.642Z,65.11
2018-04-26T07:02:03.022Z,64.95
2018-04-26T07:04:29.515Z,63.28
2018-04-26T07:06:56.994Z,64.00
2018-04-26T07:09:23.437Z,64.25
2018-04-26T07:11:49.933Z,64.61
2018-04-26T07:14:17.072Z,64.85
2018-04-26T07:16:43.561Z,61.43
2018-04-26T07:19:09.941Z,63.56
2018-04-26T07:21:36.321Z,64.73
2018-04-26T07:24:02.740Z,62.04
2018-04-26T07:26:29.487Z,64.05
2018-04-26T07:28:55.967Z,64.74
2018-04-26T07:31:22.365Z,58.71
2018-04-26T07:33:48.751Z,60.45
2018-04-26T07:36:15.192Z,59.75
2018-04-26T07:38:41.566Z,56.08
2018-04-26T07:41:08.272Z,60.11
2018-04-26T07:43:34.988Z,59.33
2018-04-26T07:46:02.116Z,59.02
2018-04-26T07:48:28.544Z,58.37
2018-04-26T07:50:54.977Z,55.89
2018-04-26T07:53:21.412Z,56.68
2018-04-26T07:55:47.957Z,55.69
2018-04-26T07:58:14.373Z,58.62
2018-04-26T08:00:40.807Z,58.88
2018-04-26T08:03:07.371Z,53.39
2018-04-26T08:05:33.850Z,53.37
2018-04-26T08:08:00.238Z,58.40
2018-04-26T08:10:26.751Z,52.21
2018-04-26T08:12:53.263Z,52.93
2018-04-26T08:15:19.817Z,50.77
2018-04-26T08:17:46.754Z,52.66
2018-04-26T08:20:13.308Z,53.35
2018-04-26T08:22:40.645Z,47.68
2018-04-26T08:25:07.138Z,46.39
2018-04-26T08:27:33.561Z,47.70
2018-04-26T08:29:59.960Z,48.28
2018-04-26T08:32:26.402Z,49.09
2018-04-26T08:34:53.120Z,46.48
2018-04-26T08:37:19.689Z,46.19
2018-04-26T08:39:46.161Z,48.80
2018-04-26T08:42:12.532Z,44.19
2018-04-26T08:44:39.319Z,49.13
2018-04-26T08:47:05.919Z,46.72
2018-04-26T08:49:32.435Z,49.52
2018-04-26T08:51:58.830Z,50.71
2018-04-26T08:54:25.385Z,49.60
2018-04-26T08:56:51.815Z,50.41
2018-04-26T08:59:18.369Z,49.80
2018-04-26T09:01:44.889Z,49.12
2018-04-26T09:04:11.312Z,49.78
2018-04-26T09:06:37.847Z,45.38
2018-04-26T09:09:04.380Z,46.33
2018-04-26T09:11:30.741Z,46.01
2018-04-26T09:13:57.152Z,44.07
2018-04-26T09:16:23.689Z,38.71
2018-04-26T09:18:50.101Z,41.82
2018-04-26T09:21:16.615Z,41.45
2018-04-26T09:23:43.059Z,40.68
2018-04-26T09:26:09.569Z,38.52
2018-04-26T09:28:35.934Z,41.17
2018-04-26T09:31:02.431Z,39.03
2018-04-26T09:33:28.876Z,38.55
2018-04-26T09:35:55.314Z,39.57
2018-04-26T09:38:21.784Z,41.07
2018-04-26T09:40:48.134Z,39.33
2018-04-26T09:43:14.557Z,35.04
2018-04-26T09:45:41.081Z,34.77
2018-04-26T09:48:07.457Z,35.97
2018-04-26T09:50:33.940Z,32.84
2018-04-26T09:53:00.305Z,36.49
2018-04-26T09:55:26.633Z,33.65
2018-04-26T09:57:53.093Z,34.16
2018-04-26T10:00:25.688Z,36.13
2018-04-26T10:02:54.088Z,39.20
2018-04-26T10:08:20.815Z,34.13
2018-04-26T10:10:47.294Z,37.07
2018-04-26T10:13:13.655Z,33.65
2018-04-26T10:15:40.181Z,36.77
2018-04-26T10:18:06.586Z,33.50
2018-04-26T10:20:32.941Z,33.61
2018-04-26T10:22:59.411Z,34.10
2018-04-26T10:25:26.144Z,37.07
2018-04-26T10:27:52.643Z,35.11
2018-04-26T10:30:19.093Z,35.75
2018-04-26T10:32:45.571Z,32.72
2018-04-26T10:35:12.014Z,33.79
2018-04-26T10:37:39.575Z,35.74
2018-04-26T10:40:06.103Z,32.90
2018-04-26T10:42:32.754Z,28.07
2018-04-26T10:44:59.264Z,33.15
2018-04-26T10:47:26.030Z,27.85
2018-04-26T10:49:52.866Z,26.27
2018-04-26T10:52:19.329Z,31.35
2018-04-26T10:54:45.913Z,29.07
2018-04-26T10:57:16.714Z,33.27
2018-04-26T10:59:43.299Z,29.90
2018-04-26T11:02:09.822Z,29.57
2018-04-26T11:04:36.261Z,32.08
2018-04-26T11:07:02.765Z,36.26
2018-04-26T11:09:29.223Z,34.36
2018-04-26T11:11:55.674Z,36.38
2018-04-26T11:14:22.117Z,36.49
2018-04-26T11:16:48.728Z,37.38
2018-04-26T11:19:15.204Z,36.46
2018-04-26T11:21:41.707Z,38.12
2018-04-26T11:24:08.165Z,33.65
2018-04-26T11:26:34.824Z,34.30
2018-04-26T11:29:01.344Z,38.85
2018-04-26T11:31:29.523Z,41.37
2018-04-26T11:33:57.069Z,40.92
2018-04-26T11:36:25.460Z,41.43
2018-04-26T11:38:53.834Z,42.48
2018-04-26T11:41:21.494Z,44.01
2018-04-26T11:43:48.446Z,41.11
2018-04-26T11:46:15.061Z,42.18
2018-04-26T11:48:41.631Z,41.14
2018-04-26T11:51:08.574Z,43.67
2018-04-26T11:53:35.082Z,45.21
2018-04-26T11:56:02.821Z,45.74
2018-04-26T11:58:29.220Z,40.11
2018-04-26T12:00:55.642Z,41.99
2018-04-26T12:03:22.249Z,41.29
2018-04-26T12:05:48.596Z,40.77
2018-04-26T12:08:15.163Z,41.59
2018-04-26T12:10:41.740Z,45.71
2018-04-26T12:13:08.355Z,40.81
2018-04-26T12:15:34.747Z,38.39
2018-04-26T12:18:01.276Z,39.69
2018-04-26T12:20:27.792Z,38.38
2018-04-26T12:22:54.247Z,40.71
2018-04-26T12:25:20.739Z,37.12
2018-04-26T12:27:47.241Z,38.81
2018-04-26T12:30:13.704Z,38.10
2018-04-26T12:32:40.245Z,37.43
2018-04-26T12:35:06.739Z,37.94
2018-04-26T12:37:33.318Z,36.82
2018-04-26T12:39:59.875Z,37.39
2018-04-26T12:42:26.385Z,37.89
2018-04-26T12:44:52.867Z,40.23
2018-04-26T12:47:19.453Z,39.98
2018-04-26T12:49:45.891Z,40.77
2018-04-26T12:52:12.351Z,41.04
2018-04-26T12:54:38.797Z,39.06
2018-04-26T12:57:05.313Z,37.90
2018-04-26T12:59:31.791Z,37.27
2018-04-26T13:01:58.502Z,40.27
2018-04-26T13:04:24.972Z,40.62
2018-04-26T13:06:51.493Z,35.37
2018-04-26T13:09:18.022Z,35.20
2018-04-26T13:11:44.410Z,37.16
2018-04-26T13:14:10.885Z,36.68
2018-04-26T13:16:37.369Z,37.21
2018-04-26T13:19:03.828Z,37.63
2018-04-26T13:21:30.395Z,38.11
2018-04-26T13:23:57.079Z,36.86
2018-04-26T13:26:23.516Z,35.40
2018-04-26T13:28:49.906Z,36.35
2018-04-26T13:31:16.478Z,35.99
2018-04-26T13:33:43.293Z,37.89
2018-04-26T13:36:10.891Z,37.58
2018-04-26T13:38:37.882Z,38.00
2018-04-26T13:41:04.315Z,37.83
2018-04-26T13:43:30.974Z,36.38
2018-04-26T13:45:57.582Z,33.10
2018-04-26T13:48:24.137Z,35.01
2018-04-26T13:50:50.509Z,36.45
2018-04-26T13:53:17.063Z,37.46
2018-04-26T13:55:43.462Z,37.52
2018-04-26T13:58:09.851Z,37.46
2018-04-26T14:00:36.559Z,36.64
2018-04-26T14:03:03.019Z,40.17
2018-04-26T14:05:30.198Z,42.05
2018-04-26T14:07:56.748Z,40.23
2018-04-26T14:10:23.673Z,39.29
2018-04-26T14:12:50.120Z,36.29
2018-04-26T14:15:16.722Z,37.17
2018-04-26T14:17:44.080Z,38.49
2018-04-26T14:20:10.877Z,39.93
2018-04-26T14:22:37.442Z,37.31
2018-04-26T14:25:04.002Z,39.96
2018-04-26T14:27:30.660Z,40.05
2018-04-26T14:29:57.159Z,41.85
2018-04-26T14:32:23.824Z,43.56
2018-04-26T14:34:50.290Z,43.90
2018-04-26T14:37:17.462Z,44.10
2018-04-26T14:39:43.948Z,44.52
2018-04-26T14:42:10.437Z,43.12
2018-04-26T14:44:36.919Z,41.70
2018-04-26T14:47:03.462Z,39.64
2018-04-26T14:49:29.865Z,39.45
2018-04-26T14:51:57.538Z,40.39
2018-04-26T14:54:24.057Z,38.97
2018-04-26T14:56:50.576Z,40.90
2018-04-26T14:59:17.045Z,40.19
2018-04-26T15:01:43.404Z,40.44
2018-04-26T15:04:09.830Z,40.28
2018-04-26T15:06:36.326Z,41.71
2018-04-26T15:09:02.840Z,42.13
2018-04-26T15:11:29.321Z,41.26
2018-04-26T15:13:55.763Z,42.49
2018-04-26T15:16:22.405Z,42.84
2018-04-26T15:18:49.014Z,42.78
2018-04-26T15:21:15.594Z,43.81
2018-04-26T15:23:42.128Z,42.72
2018-04-26T15:26:08.557Z,42.61
2018-04-26T15:28:35.095Z,42.45
2018-04-26T15:31:01.477Z,41.60
2018-04-26T15:33:28.827Z,43.00
2018-04-26T15:35:55.242Z,44.80
2018-04-26T15:38:22.101Z,43.64
2018-04-26T15:40:48.562Z,44.14
2018-04-26T15:43:15.112Z,44.29
2018-04-26T15:45:42.408Z,43.31
2018-04-26T15:48:08.779Z,45.38
2018-04-26T15:50:51.744Z,45.25
2018-04-26T15:53:30.691Z,45.71
2018-04-26T15:56:09.409Z,44.80
2018-04-26T16:02:18.211Z,44.38
2018-04-26T16:04:56.969Z,44.91
2018-04-26T16:07:50.639Z,43.88
2018-04-26T16:10:29.481Z,44.17
2018-04-26T16:13:14.438Z,45.01
2018-04-26T16:15:59.349Z,45.00
2018-04-26T16:18:42.352Z,44.95
2018-04-26T16:21:27.403Z,44.77
2018-04-26T16:24:06.322Z,44.62
2018-04-26T16:26:51.391Z,45.63
2018-04-26T16:29:36.060Z,46.51
2018-04-26T16:32:20.762Z,45.62
2018-04-26T16:34:59.415Z,45.90
2018-04-26T16:37:44.300Z,46.10
2018-04-26T16:40:11.129Z,46.39
2018-04-26T16:42:37.529Z,45.41
2018-04-26T16:45:04.015Z,45.70
2018-04-26T16:47:34.247Z,46.69
2018-04-26T16:50:00.689Z,46.25
2018-04-26T16:52:27.275Z,46.34
2018-04-26T16:54:53.783Z,46.39
2018-04-26T16:57:20.216Z,45.41
2018-04-26T16:59:46.845Z,46.71
2018-04-26T17:02:13.580Z,47.42
2018-04-26T17:04:41.986Z,47.21
2018-04-26T17:07:08.567Z,46.70
2018-04-26T17:09:35.090Z,46.77
2018-04-26T17:12:01.483Z,46.27
2018-04-26T17:14:27.899Z,46.97
2018-04-26T17:16:54.500Z,47.29
2018-04-26T17:19:21.968Z,46.99
2018-04-26T17:21:48.421Z,46.45
2018-04-26T17:24:14.801Z,46.50
2018-04-26T17:26:41.454Z,46.31
2018-04-26T17:29:08.104Z,47.23
2018-04-26T17:31:35.197Z,45.72
2018-04-26T17:34:01.837Z,46.30
2018-04-26T17:36:28.294Z,46.00
2018-04-26T17:38:54.818Z,45.53
2018-04-26T17:41:21.243Z,44.64
2018-04-26T17:43:47.675Z,45.32
2018-04-26T17:46:14.166Z,45.50
2018-04-26T17:48:41.684Z,45.43
2018-04-26T17:51:08.201Z,45.86
2018-04-26T17:53:34.681Z,46.21
2018-04-26T17:56:01.070Z,45.99
2018-04-26T17:58:27.750Z,46.60
2018-04-26T18:00:54.202Z,46.93
2018-04-26T18:03:20.701Z,47.25
2018-04-26T18:05:47.138Z,47.37
2018-04-26T18:08:13.632Z,48.55
2018-04-26T18:10:40.237Z,47.85
2018-04-26T18:13:06.676Z,48.71
2018-04-26T18:15:33.418Z,49.44
2018-04-26T18:17:59.806Z,50.03
2018-04-26T18:20:26.188Z,49.37
2018-04-26T18:22:52.684Z,49.23
2018-04-26T18:25:19.133Z,50.68
2018-04-26T18:27:45.740Z,50.50
2018-04-26T18:30:12.344Z,50.36
2018-04-26T18:32:38.846Z,51.21
2018-04-26T18:35:05.332Z,51.66
2018-04-26T18:37:32.011Z,51.38
2018-04-26T18:39:58.557Z,51.32
2018-04-26T18:42:24.961Z,51.30
2018-04-26T18:44:51.465Z,52.05
2018-04-26T18:47:18.188Z,52.08
2018-04-26T18:49:44.655Z,50.99
2018-04-26T18:52:11.150Z,51.76
2018-04-26T18:54:37.689Z,51.89
2018-04-26T18:57:04.280Z,52.20
2018-04-26T18:59:30.750Z,52.18
2018-04-26T19:01:57.613Z,52.39
2018-04-26T19:04:24.199Z,52.40
2018-04-26T19:06:50.889Z,52.63
2018-04-26T19:09:17.273Z,51.88
2018-04-26T19:11:43.734Z,52.12
2018-04-26T19:14:10.286Z,51.85
2018-04-26T19:16:36.872Z,52.55
2018-04-26T19:19:03.486Z,52.32
2018-04-26T19:21:30.019Z,54.03
2018-04-26T19:23:56.496Z,53.56
2018-04-26T19:26:23.204Z,54.95
2018-04-26T19:28:49.930Z,56.28
2018-04-26T19:31:16.405Z,55.57
2018-04-26T19:33:43.023Z,55.34
2018-04-26T19:36:09.577Z,56.09
2018-04-26T19:38:36.186Z,57.52
2018-04-26T19:41:02.741Z,59.42
2018-04-26T19:43:29.378Z,60.87
2018-04-26T19:45:55.915Z,62.38
2018-04-26T19:48:23.527Z,61.66
2018-04-26T19:50:50.486Z,62.36
2018-04-26T19:53:17.490Z,63.52
2018-04-26T19:55:44.155Z,63.12
2018-04-26T19:58:10.938Z,63.71
2018-04-26T20:00:37.595Z,63.14
2018-04-26T20:03:04.285Z,65.54
2018-04-26T20:05:31.575Z,65.16
2018-04-26T20:07:58.540Z,66.12
2018-04-26T20:10:25.166Z,66.22
2018-04-26T20:12:51.917Z,67.12
2018-04-26T20:15:18.513Z,66.41
2018-04-26T20:17:45.097Z,68.20
2018-04-26T20:20:11.648Z,67.24
2018-04-26T20:22:38.412Z,68.80
2018-04-26T20:25:05.065Z,69.63
2018-04-26T20:27:31.893Z,70.12
2018-04-26T20:29:58.694Z,70.53
2018-04-26T20:32:25.200Z,69.92
2018-04-26T20:34:51.787Z,71.84
2018-04-26T20:37:18.284Z,72.02
2018-04-26T20:39:44.825Z,71.30
2018-04-26T20:42:11.452Z,71.59
2018-04-26T20:44:43.948Z,72.68
2018-04-26T20:47:10.522Z,72.34
2018-04-26T20:49:37.031Z,71.97
2018-04-26T20:52:03.654Z,72.76
2018-04-26T20:54:30.337Z,73.23
2018-04-26T20:56:56.787Z,72.77
2018-04-26T20:59:23.404Z,73.21
2018-04-26T21:01:50.094Z,74.49
2018-04-26T21:04:16.613Z,75.08
2018-04-26T21:06:43.091Z,74.52
2018-04-26T21:09:09.744Z,75.41
2018-04-26T21:11:36.265Z,74.93
2018-04-26T21:14:02.947Z,75.69
2018-04-26T21:16:29.683Z,76.18
2018-04-26T21:18:56.405Z,75.95
2018-04-26T21:21:23.014Z,75.77
2018-04-26T21:23:49.578Z,74.49
2018-04-26T21:26:16.101Z,75.45
2018-04-26T21:28:42.741Z,75.14
2018-04-26T21:31:09.169Z,75.84
2018-04-26T21:33:35.784Z,76.41
2018-04-26T21:36:02.302Z,77.70
2018-04-26T21:38:28.935Z,77.10
2018-04-26T21:40:55.600Z,76.29
2018-04-26T21:43:22.184Z,78.57
2018-04-26T21:45:48.928Z,79.93
2018-04-26T21:48:15.775Z,78.28
2018-04-26T21:50:48.464Z,78.45
2018-04-26T21:53:21.352Z,77.78
2018-04-26T21:55:53.969Z,79.24
2018-04-26T21:58:26.569Z,79.27
2018-04-26T22:00:59.153Z,77.75
2018-04-26T22:03:28.639Z,80.05
2018-04-26T22:05:55.236Z,79.96
2018-04-26T22:08:21.775Z,79.30
2018-04-26T22:10:48.286Z,79.12
2018-04-26T22:13:14.868Z,81.16
2018-04-26T22:15:41.378Z,82.62
2018-04-26T22:18:07.878Z,81.04
2018-04-26T22:20:34.528Z,80.35
2018-04-26T22:23:00.961Z,81.23
2018-04-26T22:25:27.384Z,81.38
2018-04-26T22:27:54.885Z,82.64
2018-04-26T22:30:21.406Z,81.66
2018-04-26T22:32:47.880Z,82.77
2018-04-26T22:35:14.370Z,81.64
2018-04-26T22:37:40.906Z,81.79
2018-04-26T22:40:07.402Z,82.56
2018-04-26T22:42:33.773Z,82.65
2018-04-26T22:45:00.272Z,83.45
2018-04-26T22:47:26.872Z,83.02
2018-04-26T22:49:53.259Z,84.08
2018-04-26T22:52:19.725Z,82.97
2018-04-26T22:54:46.216Z,82.11
2018-04-26T22:57:12.719Z,81.86
2018-04-26T22:59:39.122Z,82.03
2018-04-26T23:02:05.739Z,81.39
2018-04-26T23:04:32.221Z,81.51
2018-04-26T23:06:58.685Z,82.01
2018-04-26T23:09:25.248Z,81.60
2018-04-26T23:11:51.652Z,81.35
2018-04-26T23:14:18.040Z,80.37
2018-04-26T23:16:44.465Z,81.96
2018-04-26T23:19:10.909Z,82.36
2018-04-26T23:21:37.521Z,83.23
2018-04-26T23:24:04.037Z,81.85
2018-04-26T23:26:30.464Z,82.64
2018-04-26T23:28:56.933Z,83.90
2018-04-26T23:31:23.553Z,84.42
2018-04-26T23:33:49.977Z,81.73
2018-04-26T23:36:16.467Z,83.95
2018-04-26T23:38:42.900Z,84.78
2018-04-26T23:41:09.301Z,83.61
2018-04-26T23:43:35.692Z,84.89
2018-04-26T23:46:02.318Z,84.05
2018-04-26T23:48:28.720Z,85.30
2018-04-26T23:50:55.123Z,85.80
2018-04-26T23:53:21.708Z,84.79
2018-04-26T23:55:48.083Z,85.46
2018-04-26T23:58:14.555Z,85.71
